Time;durP1;ratioP1;P1;durP2;ratioP2;P2;SDS_P1;SDS_P2;PMS_P1;PMS_P2;Temp;Humidity;BMP_temperature;BMP_pressure;BME280_temperature;BME280_humidity;BME280_pressure;Samples;Min_cycle;Max_cycle;Signal;HPM_P1;HPM_P2
2024/04/13 00:01:50;;;;;;;3.70;2.00;;;;;;;;;;5312229;26;20009;-81
2024/04/13 00:04:16;;;;;;;4.70;1.70;;;;;;;;;;5340672;26;19993;-80
2024/04/13 00:06:43;;;;;;;5.90;2.20;;;;;;;;;;5311025;27;20072;-81
2024/04/13 00:09:09;;;;;;;4.70;2.15;;;;;;;;;;5313034;26;20009;-80
2024/04/13 00:11:34;;;;;;;3.50;1.70;;;;;;;;;;5342233;26;20005;-80
2024/04/13 00:14:00;;;;;;;4.68;1.95;;;;;;;;;;5310500;26;20045;-79
2024/04/13 00:16:25;;;;;;;5.00;1.85;;;;;;;;;;5311125;27;20452;-80
2024/04/13 00:18:51;;;;;;;4.05;2.08;;;;;;;;;;5284744;26;20009;-80
2024/04/13 00:21:16;;;;;;;3.38;2.00;;;;;;;;;;5288968;26;20028;-80
2024/04/13 00:23:45;;;;;;;4.75;2.35;;;;;;;;;;5317295;26;20008;-79
2024/04/13 00:26:11;;;;;;;5.32;2.08;;;;;;;;;;5345800;26;20005;-79
2024/04/13 00:28:37;;;;;;;4.43;1.90;;;;;;;;;;5316824;26;20008;-81
2024/04/13 00:31:02;;;;;;;4.63;1.90;;;;;;;;;;5288288;26;20016;-81
2024/04/13 00:33:28;;;;;;;3.72;2.00;;;;;;;;;;5319783;26;20461;-79
2024/04/13 00:35:58;;;;;;;5.60;2.13;;;;;;;;;;5321141;26;20005;-81
2024/04/13 00:38:24;;;;;;;7.15;2.05;;;;;;;;;;5294664;26;20319;-79
2024/04/13 00:40:50;;;;;;;4.78;2.00;;;;;;;;;;5293422;26;20001;-80
2024/04/13 00:43:15;;;;;;;6.40;2.13;;;;;;;;;;5348502;26;20078;-78
2024/04/13 00:45:45;;;;;;;5.15;2.20;;;;;;;;;;5347000;26;20001;-80
2024/04/13 00:48:24;;;;;;;4.13;1.90;;;;;;;;;;5347412;26;20063;-79
2024/04/13 00:51:12;;;;;;;7.18;2.80;;;;;;;;;;5317429;26;20016;-78
2024/04/13 00:53:38;;;;;;;4.35;2.15;;;;;;;;;;5316812;26;20016;-79
2024/04/13 00:56:06;;;;;;;3.40;1.77;;;;;;;;;;5315815;26;20016;-79
2024/04/13 00:58:32;;;;;;;4.55;1.80;;;;;;;;;;5309602;26;20029;-80
2024/04/13 01:00:58;;;;;;;5.10;2.00;;;;;;;;;;5310479;26;20080;-79
2024/04/13 01:03:24;;;;;;;4.60;1.90;;;;;;;;;;5339546;26;20008;-79
2024/04/13 01:05:51;;;;;;;5.47;2.40;;;;;;;;;;5310623;27;19996;-80
2024/04/13 01:08:18;;;;;;;5.70;2.35;;;;;;;;;;5282453;27;20009;-81
2024/04/13 01:10:45;;;;;;;5.35;2.40;;;;;;;;;;5254848;27;20001;-80
2024/04/13 01:13:13;;;;;;;5.80;2.10;;;;;;;;;;5339174;26;20050;-80
2024/04/13 01:15:39;;;;;;;5.70;2.05;;;;;;;;;;5254818;26;20005;-81
2024/04/13 01:18:14;;;;;;;7.05;2.10;;;;;;;;;;5345419;26;20067;-79
2024/04/13 01:20:40;;;;;;;3.50;1.80;;;;;;;;;;5289746;26;20395;-80
2024/04/13 01:23:06;;;;;;;5.90;2.00;;;;;;;;;;5293955;26;20005;-79
2024/04/13 01:25:32;;;;;;;4.70;2.00;;;;;;;;;;5356802;26;20079;-80
2024/04/13 01:27:58;;;;;;;4.18;1.90;;;;;;;;;;5357777;26;20008;-80
2024/04/13 01:30:23;;;;;;;3.97;2.03;;;;;;;;;;5330427;26;20000;-79
2024/04/13 01:32:50;;;;;;;3.25;1.92;;;;;;;;;;5331419;26;20042;-80
2024/04/13 01:35:16;;;;;;;5.82;1.67;;;;;;;;;;5304472;26;20012;-80
2024/04/13 01:37:41;;;;;;;3.70;1.95;;;;;;;;;;5363037;26;20000;-78
2024/04/13 01:40:08;;;;;;;5.45;1.80;;;;;;;;;;5336047;26;19993;-80
2024/04/13 01:42:35;;;;;;;3.83;2.08;;;;;;;;;;5357469;26;20001;-80
2024/04/13 01:45:01;;;;;;;5.30;1.90;;;;;;;;;;5303168;27;20004;-79
2024/04/13 01:47:26;;;;;;;4.30;2.10;;;;;;;;;;5300674;27;20005;-80
2024/04/13 01:49:52;;;;;;;6.65;2.15;;;;;;;;;;5320739;27;20078;-80
2024/04/13 01:52:19;;;;;;;3.83;1.80;;;;;;;;;;5291749;27;20008;-79
2024/04/13 01:54:46;;;;;;;3.88;1.80;;;;;;;;;;5289932;26;20500;-79
2024/04/13 01:57:12;;;;;;;3.20;1.88;;;;;;;;;;5288801;27;20005;-82
2024/04/13 01:59:38;;;;;;;5.38;1.90;;;;;;;;;;5294679;26;20065;-79
2024/04/13 02:02:04;;;;;;;3.72;2.00;;;;;;;;;;5286209;27;20049;-80
2024/04/13 02:04:29;;;;;;;5.25;1.70;;;;;;;;;;5285359;27;20469;-81
2024/04/13 02:06:55;;;;;;;5.53;2.25;;;;;;;;;;5313723;27;20002;-81
2024/04/13 02:09:20;;;;;;;3.80;1.55;;;;;;;;;;5313547;26;20441;-80
2024/04/13 02:11:46;;;;;;;4.68;2.00;;;;;;;;;;5285022;26;20002;-81
2024/04/13 02:14:12;;;;;;;4.38;2.03;;;;;;;;;;5285830;27;20478;-79
2024/04/13 02:16:37;;;;;;;4.75;1.95;;;;;;;;;;5326779;26;19997;-81
2024/04/13 02:19:06;;;;;;;5.20;2.03;;;;;;;;;;5318126;26;20469;-79
2024/04/13 02:21:32;;;;;;;10.15;3.65;;;;;;;;;;5349806;26;20001;-80
2024/04/13 02:23:57;;;;;;;3.72;1.90;;;;;;;;;;5318727;26;20514;-80
2024/04/13 02:26:23;;;;;;;4.15;1.77;;;;;;;;;;5348742;26;20600;-79
2024/04/13 02:28:48;;;;;;;5.18;1.85;;;;;;;;;;5347305;26;20456;-81
2024/04/13 02:31:14;;;;;;;4.32;1.73;;;;;;;;;;5318433;26;20464;-81
2024/04/13 02:33:40;;;;;;;6.25;2.25;;;;;;;;;;5320575;26;20016;-79
2024/04/13 02:36:06;;;;;;;4.22;2.33;;;;;;;;;;5282586;27;20460;-81
2024/04/13 02:38:32;;;;;;;4.18;1.98;;;;;;;;;;5312673;27;20461;-79
2024/04/13 02:40:58;;;;;;;4.80;1.90;;;;;;;;;;5284811;27;20008;-80
2024/04/13 02:43:24;;;;;;;6.15;1.90;;;;;;;;;;5340734;26;20313;-80
2024/04/13 02:45:50;;;;;;;5.40;2.47;;;;;;;;;;5312621;26;20013;-78
2024/04/13 02:48:16;;;;;;;4.07;2.20;;;;;;;;;;5340978;26;20013;-79
2024/04/13 02:50:43;;;;;;;5.28;2.20;;;;;;;;;;5257062;27;20465;-79
2024/04/13 02:53:09;;;;;;;5.15;1.95;;;;;;;;;;5313702;26;20079;-79
2024/04/13 02:55:34;;;;;;;10.80;2.60;;;;;;;;;;5289249;27;20013;-80
2024/04/13 02:58:00;;;;;;;7.82;2.47;;;;;;;;;;5322607;27;20001;-81
2024/04/13 03:00:27;;;;;;;3.13;2.00;;;;;;;;;;5341990;26;20016;-81
2024/04/13 03:02:54;;;;;;;4.00;2.10;;;;;;;;;;5294627;26;20051;-80
2024/04/13 03:05:20;;;;;;;3.80;2.00;;;;;;;;;;5351381;26;20001;-80
2024/04/13 03:07:45;;;;;;;4.75;2.40;;;;;;;;;;5351261;26;20822;-80
2024/04/13 03:10:11;;;;;;;4.40;2.03;;;;;;;;;;5351849;26;20008;-81
2024/04/13 03:12:36;;;;;;;5.22;2.00;;;;;;;;;;5320364;26;20009;-80
2024/04/13 03:15:02;;;;;;;3.17;1.88;;;;;;;;;;5319602;26;19997;-80
2024/04/13 03:17:29;;;;;;;4.05;2.13;;;;;;;;;;5346412;26;20049;-82
2024/04/13 03:19:54;;;;;;;6.20;2.38;;;;;;;;;;5320716;26;20539;-82
2024/04/13 03:22:20;;;;;;;6.05;2.10;;;;;;;;;;5349530;26;19997;-81
2024/04/13 03:24:45;;;;;;;5.60;2.30;;;;;;;;;;5349230;26;20020;-81
2024/04/13 03:27:11;;;;;;;4.70;2.60;;;;;;;;;;5349456;26;20005;-79
2024/04/13 03:29:36;;;;;;;4.35;2.20;;;;;;;;;;5290464;26;20023;-82
2024/04/13 03:32:02;;;;;;;5.95;2.05;;;;;;;;;;5319037;26;20001;-81
2024/04/13 03:34:28;;;;;;;4.63;2.33;;;;;;;;;;5298779;26;20352;-81
2024/04/13 03:36:54;;;;;;;5.75;2.20;;;;;;;;;;5314672;26;20427;-80
2024/04/13 03:39:21;;;;;;;5.63;2.10;;;;;;;;;;5343248;26;19994;-80
2024/04/13 03:41:47;;;;;;;4.38;2.10;;;;;;;;;;5345192;26;20006;-80
2024/04/13 03:44:13;;;;;;;6.95;2.45;;;;;;;;;;5318464;26;20009;-79
2024/04/13 03:46:39;;;;;;;5.28;2.40;;;;;;;;;;5294302;26;20411;-80
2024/04/13 03:49:04;;;;;;;4.03;2.10;;;;;;;;;;5294092;26;20000;-80
2024/04/13 03:51:31;;;;;;;4.82;2.10;;;;;;;;;;5351796;26;20020;-80
2024/04/13 03:53:57;;;;;;;7.32;2.08;;;;;;;;;;5351913;26;20000;-80
2024/04/13 03:56:23;;;;;;;5.50;2.20;;;;;;;;;;5351553;26;20008;-81
2024/04/13 03:58:48;;;;;;;5.63;2.65;;;;;;;;;;5320345;26;20000;-80
2024/04/13 04:01:14;;;;;;;3.90;2.50;;;;;;;;;;5348646;26;20363;-81
2024/04/13 04:03:39;;;;;;;5.47;2.17;;;;;;;;;;5354752;26;20506;-79
2024/04/13 04:06:05;;;;;;;9.88;2.10;;;;;;;;;;5354390;26;20074;-80
2024/04/13 04:08:31;;;;;;;4.57;2.30;;;;;;;;;;5355538;26;20086;-80
2024/04/13 04:10:57;;;;;;;7.15;2.60;;;;;;;;;;5298367;26;20013;-81
2024/04/13 04:13:23;;;;;;;8.23;2.28;;;;;;;;;;5355620;26;20071;-80
2024/04/13 04:15:49;;;;;;;4.43;2.08;;;;;;;;;;5355720;26;19997;-81
2024/04/13 04:18:15;;;;;;;5.20;2.35;;;;;;;;;;5352934;26;20035;-82
2024/04/13 04:20:41;;;;;;;4.63;2.10;;;;;;;;;;5292522;27;20006;-81
2024/04/13 04:23:07;;;;;;;4.95;2.40;;;;;;;;;;5321096;26;20243;-80
2024/04/13 04:25:32;;;;;;;5.90;2.10;;;;;;;;;;5319618;26;20005;-81
2024/04/13 04:27:58;;;;;;;4.88;2.38;;;;;;;;;;5319193;26;20002;-81
2024/04/13 04:30:23;;;;;;;4.45;2.20;;;;;;;;;;5263478;27;20441;-81
2024/04/13 04:32:49;;;;;;;5.85;2.60;;;;;;;;;;5319563;27;20450;-81
2024/04/13 04:35:15;;;;;;;7.90;2.72;;;;;;;;;;5334907;26;20013;-81
2024/04/13 04:37:40;;;;;;;6.25;2.15;;;;;;;;;;5319837;26;20484;-80
2024/04/13 04:40:09;;;;;;;6.65;3.50;;;;;;;;;;5347859;26;20017;-80
2024/04/13 04:42:35;;;;;;;7.30;2.25;;;;;;;;;;5318409;27;20009;-80
2024/04/13 04:45:01;;;;;;;3.88;2.35;;;;;;;;;;5320069;26;20012;-80
2024/04/13 04:47:28;;;;;;;5.72;2.63;;;;;;;;;;5351646;26;20336;-80
2024/04/13 04:49:53;;;;;;;5.57;2.40;;;;;;;;;;5353355;26;20001;-80
2024/04/13 04:52:19;;;;;;;4.03;2.50;;;;;;;;;;5324220;26;20001;-80
2024/04/13 04:54:44;;;;;;;6.80;2.50;;;;;;;;;;5352009;26;20012;-79
2024/04/13 04:57:10;;;;;;;6.70;2.60;;;;;;;;;;5351514;26;20023;-78
2024/04/13 04:59:36;;;;;;;4.53;2.20;;;;;;;;;;5322240;26;20008;-82
2024/04/13 05:02:01;;;;;;;5.80;2.42;;;;;;;;;;5315947;26;20010;-80
2024/04/13 05:04:27;;;;;;;5.20;2.50;;;;;;;;;;5316495;26;20001;-78
2024/04/13 05:06:57;;;;;;;5.45;2.30;;;;;;;;;;5285410;27;20025;-80
2024/04/13 05:09:22;;;;;;;5.70;2.40;;;;;;;;;;5255490;27;20510;-81
2024/04/13 05:11:48;;;;;;;7.90;2.90;;;;;;;;;;5312973;26;20001;-81
2024/04/13 05:14:16;;;;;;;7.63;2.35;;;;;;;;;;5282334;27;20006;-80
2024/04/13 05:16:41;;;;;;;5.63;2.38;;;;;;;;;;5310794;26;20071;-80
2024/04/13 05:19:07;;;;;;;6.43;2.65;;;;;;;;;;5298236;26;20005;-80
2024/04/13 05:21:32;;;;;;;7.10;2.55;;;;;;;;;;5288142;26;19997;-81
2024/04/13 05:23:58;;;;;;;3.90;2.33;;;;;;;;;;5287948;26;20081;-80
2024/04/13 05:26:24;;;;;;;10.85;2.78;;;;;;;;;;5316504;26;19997;-79
2024/04/13 05:28:49;;;;;;;5.65;2.55;;;;;;;;;;5316666;26;20069;-80
2024/04/13 05:31:15;;;;;;;4.30;2.67;;;;;;;;;;5345073;26;20372;-82
2024/04/13 05:33:41;;;;;;;5.00;2.70;;;;;;;;;;5345185;26;20399;-81
2024/04/13 05:36:06;;;;;;;8.52;2.95;;;;;;;;;;5340233;26;20037;-81
2024/04/13 05:38:32;;;;;;;9.07;3.72;;;;;;;;;;5339675;26;20078;-80
2024/04/13 05:40:58;;;;;;;5.93;2.85;;;;;;;;;;5310442;26;20012;-79
2024/04/13 05:43:24;;;;;;;7.93;3.10;;;;;;;;;;5309943;27;20001;-79
2024/04/13 05:45:50;;;;;;;5.10;2.60;;;;;;;;;;5310325;26;20006;-79
2024/04/13 05:48:16;;;;;;;4.93;2.35;;;;;;;;;;5334937;26;20072;-81
2024/04/13 05:50:51;;;;;;;7.18;2.85;;;;;;;;;;5304022;26;20013;-79
2024/04/13 05:53:16;;;;;;;7.22;2.72;;;;;;;;;;5303805;26;20016;-81
2024/04/13 05:55:44;;;;;;;7.72;2.53;;;;;;;;;;5341614;26;20484;-81
2024/04/13 05:58:10;;;;;;;7.38;3.13;;;;;;;;;;5345079;26;20011;-79
2024/04/13 06:00:35;;;;;;;8.32;3.15;;;;;;;;;;5313332;26;20005;-80
2024/04/13 06:03:03;;;;;;;6.15;3.10;;;;;;;;;;5313495;26;20001;-79
2024/04/13 06:05:28;;;;;;;9.48;2.75;;;;;;;;;;5341781;26;20005;-80
2024/04/13 06:07:54;;;;;;;6.22;2.78;;;;;;;;;;5344421;26;20001;-81
2024/04/13 06:10:20;;;;;;;5.18;2.70;;;;;;;;;;5345911;26;20020;-81
2024/04/13 06:12:48;;;;;;;6.93;3.13;;;;;;;;;;5350746;26;20033;-80
2024/04/13 06:15:14;;;;;;;5.40;2.90;;;;;;;;;;5349074;26;20009;-79
2024/04/13 06:17:39;;;;;;;6.38;2.85;;;;;;;;;;5350286;26;20016;-80
2024/04/13 06:20:05;;;;;;;4.88;2.75;;;;;;;;;;5352685;26;20005;-79
2024/04/13 06:22:31;;;;;;;10.38;3.67;;;;;;;;;;5323025;26;20103;-79
2024/04/13 06:24:57;;;;;;;6.82;3.00;;;;;;;;;;5324323;26;20029;-81
2024/04/13 06:27:25;;;;;;;8.73;2.85;;;;;;;;;;5298778;26;20004;-79
2024/04/13 06:29:51;;;;;;;7.68;2.92;;;;;;;;;;5320584;26;20012;-80
2024/04/13 06:32:17;;;;;;;7.45;3.70;;;;;;;;;;5346664;26;20534;-80
2024/04/13 06:34:43;;;;;;;6.70;3.00;;;;;;;;;;5295057;26;20009;-80
2024/04/13 06:37:11;;;;;;;9.25;3.30;;;;;;;;;;5311840;26;20001;-81
2024/04/13 06:39:37;;;;;;;6.07;2.65;;;;;;;;;;5349695;26;20009;-79
2024/04/13 06:42:02;;;;;;;12.50;3.00;;;;;;;;;;5348532;26;20467;-79
2024/04/13 06:44:28;;;;;;;9.30;2.90;;;;;;;;;;5350579;26;20013;-81
2024/04/13 06:46:54;;;;;;;6.28;2.78;;;;;;;;;;5351308;26;20012;-79
2024/04/13 06:49:20;;;;;;;8.55;3.30;;;;;;;;;;5323162;26;20001;-81
2024/04/13 06:51:46;;;;;;;8.60;3.00;;;;;;;;;;5354468;26;20051;-78
2024/04/13 06:54:12;;;;;;;8.18;3.05;;;;;;;;;;5292681;26;20001;-80
2024/04/13 06:56:37;;;;;;;8.23;2.85;;;;;;;;;;5351068;26;20008;-81
2024/04/13 06:59:03;;;;;;;8.00;3.03;;;;;;;;;;5317806;26;20006;-80
2024/04/13 07:01:29;;;;;;;10.25;3.17;;;;;;;;;;5316850;26;20034;-79
2024/04/13 07:03:58;;;;;;;6.35;3.00;;;;;;;;;;5314571;26;20011;-80
2024/04/13 07:06:24;;;;;;;7.28;3.33;;;;;;;;;;5345678;26;20009;-82
2024/04/13 07:08:50;;;;;;;6.75;3.25;;;;;;;;;;5345545;26;20414;-80
2024/04/13 07:11:16;;;;;;;8.70;3.42;;;;;;;;;;5288861;26;20009;-80
2024/04/13 07:13:42;;;;;;;8.30;3.05;;;;;;;;;;5289965;26;20001;-81
2024/04/13 07:16:09;;;;;;;10.13;3.33;;;;;;;;;;5343452;26;20023;-81
2024/04/13 07:18:35;;;;;;;7.07;3.15;;;;;;;;;;5317914;26;20016;-80
2024/04/13 07:21:01;;;;;;;5.25;3.20;;;;;;;;;;5290708;26;20005;-82
2024/04/13 07:23:27;;;;;;;11.75;3.67;;;;;;;;;;5319050;26;20005;-83
2024/04/13 07:26:04;;;;;;;10.15;3.78;;;;;;;;;;5323033;26;20005;-82
2024/04/13 07:28:30;;;;;;;8.10;3.90;;;;;;;;;;5293573;26;20002;-83
2024/04/13 07:30:56;;;;;;;5.38;3.10;;;;;;;;;;5349998;26;20004;-83
2024/04/13 07:33:21;;;;;;;7.78;3.60;;;;;;;;;;5348981;26;20015;-83
2024/04/13 07:35:48;;;;;;;6.82;3.42;;;;;;;;;;5320302;26;20009;-84
2024/04/13 07:38:13;;;;;;;7.60;3.22;;;;;;;;;;5321675;26;20396;-82
2024/04/13 07:40:40;;;;;;;4.15;2.80;;;;;;;;;;5289932;26;19997;-83
2024/04/13 07:43:06;;;;;;;8.77;3.53;;;;;;;;;;5287637;27;20006;-84
2024/04/13 07:45:31;;;;;;;9.75;3.60;;;;;;;;;;5319406;26;20016;-82
2024/04/13 07:47:57;;;;;;;8.25;3.95;;;;;;;;;;5319341;26;20052;-83
2024/04/13 07:50:23;;;;;;;8.25;3.45;;;;;;;;;;5289153;26;20464;-82
2024/04/13 07:52:49;;;;;;;9.65;3.25;;;;;;;;;;5310458;27;20013;-81
2024/04/13 07:55:14;;;;;;;6.30;3.35;;;;;;;;;;5313527;26;20005;-81
2024/04/13 07:57:40;;;;;;;8.07;3.00;;;;;;;;;;5317734;26;20741;-82
2024/04/13 08:00:06;;;;;;;8.65;2.88;;;;;;;;;;5291033;26;20001;-82
2024/04/13 08:02:38;;;;;;;5.03;2.90;;;;;;;;;;5335900;26;20365;-80
2024/04/13 08:05:03;;;;;;;8.32;3.10;;;;;;;;;;5346348;26;20013;-82
2024/04/13 08:07:29;;;;;;;7.57;3.08;;;;;;;;;;5347689;26;20001;-81
2024/04/13 08:09:54;;;;;;;5.50;2.97;;;;;;;;;;5313877;26;20002;-83
2024/04/13 08:12:20;;;;;;;8.48;2.63;;;;;;;;;;5301738;26;20004;-82
2024/04/13 08:14:46;;;;;;;7.47;2.40;;;;;;;;;;5306971;26;20002;-83
2024/04/13 08:17:13;;;;;;;8.38;2.80;;;;;;;;;;5330044;26;20348;-82
2024/04/13 08:19:38;;;;;;;12.55;3.28;;;;;;;;;;5292697;26;20000;-81
2024/04/13 08:22:06;;;;;;;5.30;2.20;;;;;;;;;;5298317;26;20139;-83
2024/04/13 08:24:32;;;;;;;7.07;2.58;;;;;;;;;;5344286;26;20012;-83
2024/04/13 08:26:57;;;;;;;8.48;2.65;;;;;;;;;;5306462;26;20016;-83
2024/04/13 08:29:23;;;;;;;7.50;2.25;;;;;;;;;;5289333;26;20015;-82
2024/04/13 08:31:49;;;;;;;4.07;2.20;;;;;;;;;;5319204;26;20054;-81
2024/04/13 08:34:16;;;;;;;5.78;2.35;;;;;;;;;;5322874;26;20329;-81
2024/04/13 08:36:42;;;;;;;5.18;1.90;;;;;;;;;;5358653;26;20005;-83
2024/04/13 08:39:11;;;;;;;5.65;2.13;;;;;;;;;;5317371;27;20009;-83
2024/04/13 08:41:43;;;;;;;7.88;2.33;;;;;;;;;;5297826;26;20085;-83
2024/04/13 08:44:09;;;;;;;11.85;2.83;;;;;;;;;;5324411;26;20052;-82
2024/04/13 08:46:35;;;;;;;7.55;3.08;;;;;;;;;;5354414;26;20008;-82
2024/04/13 08:49:02;;;;;;;8.57;2.20;;;;;;;;;;5318436;26;20016;-83
2024/04/13 08:51:31;;;;;;;7.10;1.95;;;;;;;;;;5318092;26;20013;-81
2024/04/13 08:53:57;;;;;;;15.27;2.30;;;;;;;;;;5309646;26;20020;-83
2024/04/13 08:56:24;;;;;;;9.10;2.10;;;;;;;;;;5311025;26;20013;-83
2024/04/13 08:58:51;;;;;;;10.52;2.50;;;;;;;;;;5305220;26;20013;-82
2024/04/13 09:01:18;;;;;;;5.03;1.90;;;;;;;;;;5282179;26;20090;-83
2024/04/13 09:03:45;;;;;;;7.32;2.10;;;;;;;;;;5306248;26;20079;-83
2024/04/13 09:06:12;;;;;;;5.80;2.25;;;;;;;;;;5309389;26;20017;-83
2024/04/13 09:08:39;;;;;;;6.47;2.03;;;;;;;;;;5310613;26;20005;-81
2024/04/13 09:11:08;;;;;;;5.90;2.25;;;;;;;;;;5310824;26;20464;-83
2024/04/13 09:13:38;;;;;;;7.32;2.20;;;;;;;;;;5337088;26;20090;-81
2024/04/13 09:16:06;;;;;;;7.72;2.10;;;;;;;;;;5336693;26;20468;-83
2024/04/13 09:18:32;;;;;;;8.48;2.30;;;;;;;;;;5311299;26;20001;-81
2024/04/13 09:21:01;;;;;;;8.95;2.17;;;;;;;;;;5322619;26;20530;-80
2024/04/13 09:23:27;;;;;;;5.50;2.00;;;;;;;;;;5326930;26;20005;-82
2024/04/13 09:26:21;;;;;;;10.35;1.95;;;;;;;;;;5331735;26;20005;-82
2024/04/13 09:28:50;;;;;;;6.35;2.22;;;;;;;;;;5347203;26;20012;-84
2024/04/13 09:31:16;;;;;;;;;;;;;;;;;;5295209;26;20009;-81
2024/04/13 09:33:47;;;;;;;9.35;2.28;;;;;;;;;;5319359;26;19972;-82
2024/04/13 09:36:20;;;;;;;11.77;1.98;;;;;;;;;;5354912;26;20020;-81
2024/04/13 09:38:46;;;;;;;7.82;2.00;;;;;;;;;;5338399;26;20017;-79
2024/04/13 09:41:11;;;;;;;6.13;2.13;;;;;;;;;;5312436;26;20005;-80
2024/04/13 09:43:38;;;;;;;5.28;2.00;;;;;;;;;;5345789;26;20033;-80
2024/04/13 09:46:04;;;;;;;6.22;1.80;;;;;;;;;;5316456;26;20013;-81
2024/04/13 09:48:30;;;;;;;5.78;1.67;;;;;;;;;;5309643;26;20094;-80
2024/04/13 09:50:57;;;;;;;7.72;1.80;;;;;;;;;;5314995;26;20020;-80
2024/04/13 09:53:23;;;;;;;6.15;2.03;;;;;;;;;;5351479;26;20087;-80
2024/04/13 09:55:49;;;;;;;5.63;1.80;;;;;;;;;;5348141;26;20017;-80
2024/04/13 09:58:15;;;;;;;6.97;2.13;;;;;;;;;;5351738;26;20019;-79
2024/04/13 10:00:41;;;;;;;8.85;2.45;;;;;;;;;;5318534;26;20012;-78
2024/04/13 10:03:06;;;;;;;6.35;1.77;;;;;;;;;;5319367;26;20012;-80
2024/04/13 10:05:33;;;;;;;8.85;1.80;;;;;;;;;;5318993;26;20483;-79
2024/04/13 10:08:00;;;;;;;6.30;1.77;;;;;;;;;;5342760;26;20013;-79
2024/04/13 10:10:28;;;;;;;11.98;2.15;;;;;;;;;;5296321;26;19997;-79
2024/04/13 10:12:54;;;;;;;6.57;1.67;;;;;;;;;;5355817;26;20029;-79
2024/04/13 10:15:20;;;;;;;9.88;3.50;;;;;;;;;;5322910;26;20016;-81
2024/04/13 10:17:46;;;;;;;4.13;1.60;;;;;;;;;;5352538;26;20048;-80
2024/04/13 10:20:13;;;;;;;4.75;1.80;;;;;;;;;;5323795;26;20012;-80
2024/04/13 10:22:39;;;;;;;7.50;1.95;;;;;;;;;;5353385;26;20015;-80
2024/04/13 10:25:07;;;;;;;4.68;1.60;;;;;;;;;;5289481;26;20002;-79
2024/04/13 10:27:33;;;;;;;7.15;1.70;;;;;;;;;;5321872;26;20079;-80
2024/04/13 10:29:59;;;;;;;5.10;1.73;;;;;;;;;;5320493;26;20038;-79
2024/04/13 10:32:25;;;;;;;5.00;1.65;;;;;;;;;;5317334;26;20415;-80
2024/04/13 10:34:51;;;;;;;5.28;1.75;;;;;;;;;;5319916;26;20452;-81
2024/04/13 10:37:34;;;;;;;6.65;1.73;;;;;;;;;;5319047;26;20005;-81
2024/04/13 10:40:00;;;;;;;5.78;1.98;;;;;;;;;;5318050;26;20016;-80
2024/04/13 10:42:33;;;;;;;5.18;1.63;;;;;;;;;;5347596;26;20459;-80
2024/04/13 10:44:59;;;;;;;6.15;1.50;;;;;;;;;;5335639;26;19997;-81
2024/04/13 10:47:25;;;;;;;8.02;2.00;;;;;;;;;;5339011;26;20126;-81
2024/04/13 10:49:51;;;;;;;9.18;1.80;;;;;;;;;;5316276;26;20439;-80
2024/04/13 10:52:17;;;;;;;8.20;1.90;;;;;;;;;;5315152;26;20013;-80
2024/04/13 10:54:53;;;;;;;3.53;1.70;;;;;;;;;;5313174;26;20403;-80
2024/04/13 10:57:20;;;;;;;6.43;1.60;;;;;;;;;;5366690;26;20009;-79
2024/04/13 10:59:46;;;;;;;6.85;1.70;;;;;;;;;;5314033;26;20359;-81
2024/04/13 11:02:11;;;;;;;3.63;1.50;;;;;;;;;;5339517;26;20017;-81
2024/04/13 11:04:41;;;;;;;5.07;1.58;;;;;;;;;;5318429;26;20001;-80
2024/04/13 11:07:07;;;;;;;6.20;1.75;;;;;;;;;;5336181;26;20057;-80
2024/04/13 11:09:32;;;;;;;5.57;1.67;;;;;;;;;;5312167;26;20005;-81
2024/04/13 11:11:58;;;;;;;10.18;1.77;;;;;;;;;;5312799;26;20008;-80
2024/04/13 11:14:25;;;;;;;5.10;1.50;;;;;;;;;;5311858;26;20217;-80
2024/04/13 11:16:51;;;;;;;5.43;1.42;;;;;;;;;;5346799;26;20003;-80
2024/04/13 11:19:17;;;;;;;8.30;1.58;;;;;;;;;;5298016;26;20009;-81
2024/04/13 11:21:43;;;;;;;7.75;1.70;;;;;;;;;;5353898;26;20009;-81
2024/04/13 11:24:09;;;;;;;3.95;1.58;;;;;;;;;;5350944;26;20009;-80
2024/04/13 11:26:37;;;;;;;7.18;1.40;;;;;;;;;;5353744;26;20004;-81
2024/04/13 11:29:03;;;;;;;;;;;;;;;;;;5330317;26;20016;-81
2024/04/13 11:31:29;;;;;;;7.38;2.03;;;;;;;;;;5321960;26;19933;-80
2024/04/13 11:33:55;;;;;;;5.70;1.40;;;;;;;;;;5321602;26;20009;-80
2024/04/13 11:36:21;;;;;;;7.05;1.75;;;;;;;;;;5315890;26;20002;-81
2024/04/13 11:38:47;;;;;;;7.40;1.50;;;;;;;;;;5292526;26;20005;-79
2024/04/13 11:41:13;;;;;;;4.55;1.40;;;;;;;;;;5321308;26;20005;-80
2024/04/13 11:43:39;;;;;;;6.20;1.58;;;;;;;;;;5315184;26;20017;-81
2024/04/13 11:46:05;;;;;;;7.90;1.65;;;;;;;;;;5270152;26;20009;-80
2024/04/13 11:48:32;;;;;;;4.35;1.35;;;;;;;;;;5319456;26;20004;-81
2024/04/13 11:50:57;;;;;;;6.05;1.60;;;;;;;;;;5319315;26;20092;-80
2024/04/13 11:53:23;;;;;;;5.03;1.30;;;;;;;;;;5323685;26;20099;-80
2024/04/13 11:55:50;;;;;;;12.85;2.10;;;;;;;;;;5319969;26;20005;-80
2024/04/13 11:58:19;;;;;;;5.72;1.35;;;;;;;;;;5343428;26;20005;-79
2024/04/13 12:00:44;;;;;;;6.20;1.45;;;;;;;;;;5354717;26;20013;-82
2024/04/13 12:03:10;;;;;;;6.07;1.42;;;;;;;;;;5341586;26;20009;-81
2024/04/13 12:05:36;;;;;;;5.22;1.52;;;;;;;;;;5334033;26;20001;-81
2024/04/13 12:08:01;;;;;;;3.40;1.25;;;;;;;;;;5292116;26;20005;-81
2024/04/13 12:10:27;;;;;;;6.35;1.38;;;;;;;;;;5329866;26;20476;-82
2024/04/13 12:12:53;;;;;;;5.80;2.03;;;;;;;;;;5299694;26;19997;-81
2024/04/13 12:15:18;;;;;;;6.03;1.40;;;;;;;;;;5318182;26;20008;-80
2024/04/13 12:17:44;;;;;;;2.92;1.45;;;;;;;;;;5350342;26;20008;-81
2024/04/13 12:20:09;;;;;;;3.35;1.20;;;;;;;;;;5322173;26;20350;-81
2024/04/13 12:22:35;;;;;;;4.82;1.30;;;;;;;;;;5329407;26;20008;-81
2024/04/13 12:25:01;;;;;;;4.40;1.42;;;;;;;;;;5324414;26;20055;-81
2024/04/13 12:27:27;;;;;;;5.38;1.40;;;;;;;;;;5360913;26;20005;-80
2024/04/13 12:29:53;;;;;;;4.18;1.10;;;;;;;;;;5332625;26;20012;-81
2024/04/13 12:32:19;;;;;;;4.32;1.30;;;;;;;;;;5360818;26;20000;-80
2024/04/13 12:34:45;;;;;;;3.33;1.27;;;;;;;;;;5305469;26;20005;-80
2024/04/13 12:37:11;;;;;;;3.40;1.17;;;;;;;;;;5299009;26;20015;-81
2024/04/13 12:39:39;;;;;;;3.60;1.30;;;;;;;;;;5361191;26;20038;-78
2024/04/13 12:42:05;;;;;;;7.80;1.42;;;;;;;;;;5354641;26;20020;-80
2024/04/13 12:44:30;;;;;;;5.72;1.45;;;;;;;;;;5360942;26;20015;-80
2024/04/13 12:46:56;;;;;;;7.38;1.60;;;;;;;;;;5364065;26;20005;-80
2024/04/13 12:49:22;;;;;;;4.53;1.15;;;;;;;;;;5319835;27;20018;-80
2024/04/13 12:51:47;;;;;;;3.38;1.20;;;;;;;;;;5336651;26;20083;-81
2024/04/13 12:54:13;;;;;;;5.40;1.30;;;;;;;;;;5313742;26;20009;-80
2024/04/13 12:56:39;;;;;;;6.68;1.25;;;;;;;;;;5272320;27;20005;-80
2024/04/13 12:59:06;;;;;;;4.05;1.30;;;;;;;;;;5303867;26;20448;-81
2024/04/13 13:01:32;;;;;;;3.53;1.38;;;;;;;;;;5343845;26;20078;-81
2024/04/13 13:03:57;;;;;;;2.72;1.20;;;;;;;;;;5318604;26;20485;-79
2024/04/13 13:06:23;;;;;;;8.85;1.40;;;;;;;;;;5325578;26;20008;-82
2024/04/13 13:08:49;;;;;;;3.47;1.20;;;;;;;;;;5312808;26;20465;-81
2024/04/13 13:11:15;;;;;;;7.35;1.45;;;;;;;;;;5290865;26;20074;-82
2024/04/13 13:13:41;;;;;;;3.80;1.30;;;;;;;;;;5314471;26;20316;-82
2024/04/13 13:16:07;;;;;;;5.93;1.17;;;;;;;;;;5319496;26;20004;-81
2024/04/13 13:18:33;;;;;;;4.13;1.10;;;;;;;;;;5340597;26;20056;-81
2024/04/13 13:20:58;;;;;;;5.57;1.50;;;;;;;;;;5370953;26;20018;-81
2024/04/13 13:23:24;;;;;;;6.63;1.40;;;;;;;;;;5349290;26;20020;-81
2024/04/13 13:25:49;;;;;;;4.78;1.30;;;;;;;;;;5318747;26;20013;-81
2024/04/13 13:28:15;;;;;;;4.03;1.42;;;;;;;;;;5318327;26;20002;-81
2024/04/13 13:30:42;;;;;;;5.18;1.25;;;;;;;;;;5313596;26;20016;-82
2024/04/13 13:33:12;;;;;;;4.47;1.15;;;;;;;;;;5308927;26;20033;-82
2024/04/13 13:35:40;;;;;;;11.02;2.20;;;;;;;;;;5315003;26;20332;-81
2024/04/13 13:38:06;;;;;;;4.03;1.35;;;;;;;;;;5304081;26;20512;-82
2024/04/13 13:40:32;;;;;;;3.72;1.00;;;;;;;;;;5293059;26;20013;-80
2024/04/13 13:42:58;;;;;;;3.10;1.13;;;;;;;;;;5314431;26;20468;-81
2024/04/13 13:45:23;;;;;;;3.13;1.17;;;;;;;;;;5332882;26;20005;-80
2024/04/13 13:47:49;;;;;;;4.15;1.42;;;;;;;;;;5312092;26;20020;-81
2024/04/13 13:50:16;;;;;;;5.90;1.00;;;;;;;;;;5322193;26;20015;-80
2024/04/13 13:52:41;;;;;;;3.40;1.27;;;;;;;;;;5321650;26;20012;-81
2024/04/13 13:55:07;;;;;;;3.75;1.10;;;;;;;;;;5359247;26;20024;-81
2024/04/13 13:57:33;;;;;;;4.15;1.30;;;;;;;;;;5313240;26;20014;-81
2024/04/13 13:59:59;;;;;;;4.68;1.55;;;;;;;;;;5313570;26;20165;-80
2024/04/13 14:02:24;;;;;;;3.25;1.05;;;;;;;;;;5311033;26;20440;-81
2024/04/13 14:04:50;;;;;;;2.80;0.95;;;;;;;;;;5311432;26;20050;-80
2024/04/13 14:07:16;;;;;;;4.32;1.30;;;;;;;;;;5344505;26;20009;-81
2024/04/13 14:09:42;;;;;;;5.13;1.25;;;;;;;;;;5296553;26;20015;-81
2024/04/13 14:12:08;;;;;;;3.58;1.10;;;;;;;;;;5352701;26;19997;-81
2024/04/13 14:14:34;;;;;;;2.20;1.00;;;;;;;;;;5315662;26;20012;-82
2024/04/13 14:17:00;;;;;;;4.30;1.17;;;;;;;;;;5280926;26;20461;-81
2024/04/13 14:19:26;;;;;;;3.42;0.98;;;;;;;;;;5322140;26;20017;-83
2024/04/13 14:21:51;;;;;;;6.50;1.08;;;;;;;;;;5333177;26;20005;-82
2024/04/13 14:24:17;;;;;;;3.38;1.30;;;;;;;;;;5319508;26;20479;-81
2024/04/13 14:26:43;;;;;;;5.47;1.20;;;;;;;;;;5323569;26;20012;-81
2024/04/13 14:29:08;;;;;;;4.30;1.10;;;;;;;;;;5347463;26;20048;-82
2024/04/13 14:31:34;;;;;;;2.72;1.02;;;;;;;;;;5353850;26;20085;-80
2024/04/13 14:34:00;;;;;;;2.55;1.20;;;;;;;;;;5325874;26;19997;-81
2024/04/13 14:36:26;;;;;;;3.63;1.10;;;;;;;;;;5320122;26;20016;-82
2024/04/13 14:38:51;;;;;;;4.47;1.17;;;;;;;;;;5321298;26;20020;-81